sensor_id;sensor_type;location;lat;lon;timestamp;pressure;altitude;pressure_sealevel;temperature;humidity
56176;BME280;63065;51.082;17.016;2023-02-27T00:02:24;101043.45;;;5.80;38.20
56176;BME280;63065;51.082;17.016;2023-02-27T00:04:50;101042.21;;;5.46;37.44
56176;BME280;63065;51.082;17.016;2023-02-27T00:07:15;101038.11;;;5.85;37.49
56176;BME280;63065;51.082;17.016;2023-02-27T00:09:40;101039.74;;;5.29;38.32
56176;BME280;63065;51.082;17.016;2023-02-27T00:12:06;101045.60;;;5.47;37.50
56176;BME280;63065;51.082;17.016;2023-02-27T00:14:31;101047.33;;;5.06;37.99
56176;BME280;63065;51.082;17.016;2023-02-27T00:16:56;101046.40;;;4.93;38.36
56176;BME280;63065;51.082;17.016;2023-02-27T00:19:21;101047.63;;;4.32;38.73
56176;BME280;63065;51.082;17.016;2023-02-27T00:21:47;101050.04;;;5.03;38.58
56176;BME280;63065;51.082;17.016;2023-02-27T00:24:13;101050.88;;;5.23;38.56
56176;BME280;63065;51.082;17.016;2023-02-27T00:26:38;101051.52;;;4.86;38.82
56176;BME280;63065;51.082;17.016;2023-02-27T00:29:04;101053.27;;;4.86;37.91
56176;BME280;63065;51.082;17.016;2023-02-27T00:31:30;101052.70;;;4.56;39.04
56176;BME280;63065;51.082;17.016;2023-02-27T00:33:55;101054.01;;;4.54;38.68
56176;BME280;63065;51.082;17.016;2023-02-27T00:36:20;101052.38;;;4.84;38.12
56176;BME280;63065;51.082;17.016;2023-02-27T00:38:45;101055.51;;;5.15;38.04
56176;BME280;63065;51.082;17.016;2023-02-27T00:41:11;101054.87;;;5.28;37.37
56176;BME280;63065;51.082;17.016;2023-02-27T00:43:36;101050.87;;;4.81;37.99
56176;BME280;63065;51.082;17.016;2023-02-27T00:46:02;101050.86;;;5.19;37.71
56176;BME280;63065;51.082;17.016;2023-02-27T00:48:28;101050.75;;;4.96;37.78
56176;BME280;63065;51.082;17.016;2023-02-27T00:50:52;101051.33;;;4.84;38.34
56176;BME280;63065;51.082;17.016;2023-02-27T00:53:18;101054.07;;;5.14;38.78
56176;BME280;63065;51.082;17.016;2023-02-27T00:55:43;101055.02;;;5.11;37.45
56176;BME280;63065;51.082;17.016;2023-02-27T00:58:09;101047.86;;;5.13;36.31
56176;BME280;63065;51.082;17.016;2023-02-27T01:00:34;101049.72;;;5.52;36.86
56176;BME280;63065;51.082;17.016;2023-02-27T01:02:59;101047.45;;;5.43;37.67
56176;BME280;63065;51.082;17.016;2023-02-27T01:05:25;101047.38;;;5.36;37.60
56176;BME280;63065;51.082;17.016;2023-02-27T01:07:51;101043.27;;;5.33;37.10
56176;BME280;63065;51.082;17.016;2023-02-27T01:10:16;101047.70;;;5.51;37.59
56176;BME280;63065;51.082;17.016;2023-02-27T01:12:41;101046.82;;;5.67;37.15
56176;BME280;63065;51.082;17.016;2023-02-27T01:15:10;101042.77;;;5.82;37.45
56176;BME280;63065;51.082;17.016;2023-02-27T01:17:32;101044.43;;;5.78;37.55
56176;BME280;63065;51.082;17.016;2023-02-27T01:19:57;101040.76;;;5.49;37.05
56176;BME280;63065;51.082;17.016;2023-02-27T01:22:24;101040.62;;;5.72;37.10
56176;BME280;63065;51.082;17.016;2023-02-27T01:24:48;101036.62;;;5.58;36.97
56176;BME280;63065;51.082;17.016;2023-02-27T01:27:14;101039.52;;;5.57;37.35
56176;BME280;63065;51.082;17.016;2023-02-27T01:29:39;101040.13;;;5.48;36.36
56176;BME280;63065;51.082;17.016;2023-02-27T01:32:04;101038.64;;;5.67;36.96
56176;BME280;63065;51.082;17.016;2023-02-27T01:34:30;101042.19;;;5.65;37.16
56176;BME280;63065;51.082;17.016;2023-02-27T01:36:55;101042.93;;;5.72;36.66
56176;BME280;63065;51.082;17.016;2023-02-27T01:39:20;101042.92;;;5.42;36.43
56176;BME280;63065;51.082;17.016;2023-02-27T01:41:46;101047.21;;;5.45;37.65
56176;BME280;63065;51.082;17.016;2023-02-27T01:44:13;101050.43;;;5.23;36.80
56176;BME280;63065;51.082;17.016;2023-02-27T01:46:37;101048.89;;;5.35;37.39
56176;BME280;63065;51.082;17.016;2023-02-27T01:49:06;101050.64;;;5.21;37.27
56176;BME280;63065;51.082;17.016;2023-02-27T01:51:31;101053.06;;;5.01;37.33
56176;BME280;63065;51.082;17.016;2023-02-27T01:53:53;101055.43;;;5.20;37.44
56176;BME280;63065;51.082;17.016;2023-02-27T01:56:21;101057.23;;;4.90;37.44
56176;BME280;63065;51.082;17.016;2023-02-27T01:58:45;101056.12;;;4.49;37.84
56176;BME280;63065;51.082;17.016;2023-02-27T02:01:10;101057.75;;;4.64;37.81
56176;BME280;63065;51.082;17.016;2023-02-27T02:03:40;101059.22;;;4.97;37.78
56176;BME280;63065;51.082;17.016;2023-02-27T02:06:02;101059.76;;;5.00;36.66
56176;BME280;63065;51.082;17.016;2023-02-27T02:08:29;101059.83;;;4.98;37.40
56176;BME280;63065;51.082;17.016;2023-02-27T02:10:53;101057.79;;;4.81;37.19
56176;BME280;63065;51.082;17.016;2023-02-27T02:13:18;101059.13;;;4.94;37.97
56176;BME280;63065;51.082;17.016;2023-02-27T02:15:50;101060.89;;;5.02;37.13
56176;BME280;63065;51.082;17.016;2023-02-27T02:18:16;101064.08;;;5.10;37.86
56176;BME280;63065;51.082;17.016;2023-02-27T02:20:47;101059.46;;;4.54;36.74
56176;BME280;63065;51.082;17.016;2023-02-27T02:25:37;101063.64;;;4.82;36.45
56176;BME280;63065;51.082;17.016;2023-02-27T02:27:58;101063.30;;;4.83;36.99
56176;BME280;63065;51.082;17.016;2023-02-27T02:32:55;101068.87;;;5.28;36.75
56176;BME280;63065;51.082;17.016;2023-02-27T02:35:20;101069.18;;;5.09;36.02
56176;BME280;63065;51.082;17.016;2023-02-27T02:40:09;101074.40;;;5.08;36.82
56176;BME280;63065;51.082;17.016;2023-02-27T02:42:25;101074.94;;;5.02;36.51
56176;BME280;63065;51.082;17.016;2023-02-27T02:44:55;101078.92;;;5.07;37.63
56176;BME280;63065;51.082;17.016;2023-02-27T02:47:18;101082.02;;;5.13;37.14
56176;BME280;63065;51.082;17.016;2023-02-27T02:49:42;101082.74;;;5.05;35.82
56176;BME280;63065;51.082;17.016;2023-02-27T02:52:07;101086.02;;;5.36;36.97
56176;BME280;63065;51.082;17.016;2023-02-27T02:54:36;101089.18;;;5.45;36.58
56176;BME280;63065;51.082;17.016;2023-02-27T02:56:58;101094.52;;;5.19;37.22
56176;BME280;63065;51.082;17.016;2023-02-27T02:59:25;101097.31;;;5.04;36.90
56176;BME280;63065;51.082;17.016;2023-02-27T03:01:48;101100.18;;;5.45;35.56
56176;BME280;63065;51.082;17.016;2023-02-27T03:04:14;101097.90;;;5.38;36.40
56176;BME280;63065;51.082;17.016;2023-02-27T03:06:38;101102.31;;;5.02;35.51
56176;BME280;63065;51.082;17.016;2023-02-27T03:09:05;101104.55;;;4.88;37.24
56176;BME280;63065;51.082;17.016;2023-02-27T03:11:30;101110.12;;;4.44;36.73
56176;BME280;63065;51.082;17.016;2023-02-27T03:13:53;101111.03;;;4.56;37.11
56176;BME280;63065;51.082;17.016;2023-02-27T03:16:22;101113.79;;;4.95;36.96
56176;BME280;63065;51.082;17.016;2023-02-27T03:18:44;101118.52;;;5.16;36.93
56176;BME280;63065;51.082;17.016;2023-02-27T03:21:09;101118.83;;;5.10;37.10
56176;BME280;63065;51.082;17.016;2023-02-27T03:23:36;101118.34;;;5.05;36.45
56176;BME280;63065;51.082;17.016;2023-02-27T03:25:58;101120.52;;;5.13;36.75
56176;BME280;63065;51.082;17.016;2023-02-27T03:28:26;101120.68;;;5.21;37.06
56176;BME280;63065;51.082;17.016;2023-02-27T03:30:51;101123.24;;;4.82;37.08
56176;BME280;63065;51.082;17.016;2023-02-27T03:33:18;101121.42;;;5.32;36.87
56176;BME280;63065;51.082;17.016;2023-02-27T03:35:43;101121.93;;;5.28;37.00
56176;BME280;63065;51.082;17.016;2023-02-27T03:38:10;101122.79;;;5.40;35.73
56176;BME280;63065;51.082;17.016;2023-02-27T03:40:33;101124.68;;;5.57;36.51
56176;BME280;63065;51.082;17.016;2023-02-27T03:43:00;101124.80;;;5.67;36.44
56176;BME280;63065;51.082;17.016;2023-02-27T03:45:26;101126.02;;;5.49;35.94
56176;BME280;63065;51.082;17.016;2023-02-27T03:47:46;101128.69;;;4.77;36.90
56176;BME280;63065;51.082;17.016;2023-02-27T03:50:12;101135.84;;;4.93;36.60
56176;BME280;63065;51.082;17.016;2023-02-27T03:52:37;101141.39;;;4.64;36.57
56176;BME280;63065;51.082;17.016;2023-02-27T03:55:08;101145.45;;;4.57;36.71
56176;BME280;63065;51.082;17.016;2023-02-27T03:57:30;101145.06;;;4.51;37.76
56176;BME280;63065;51.082;17.016;2023-02-27T03:59:53;101143.81;;;4.80;37.92
56176;BME280;63065;51.082;17.016;2023-02-27T04:02:19;101145.54;;;4.84;37.73
56176;BME280;63065;51.082;17.016;2023-02-27T04:04:44;101148.50;;;5.01;37.46
56176;BME280;63065;51.082;17.016;2023-02-27T04:07:14;101151.02;;;5.01;36.92
56176;BME280;63065;51.082;17.016;2023-02-27T04:09:48;101149.91;;;4.89;37.73
56176;BME280;63065;51.082;17.016;2023-02-27T04:12:13;101153.87;;;5.07;37.14
56176;BME280;63065;51.082;17.016;2023-02-27T04:14:37;101154.33;;;4.85;36.67
56176;BME280;63065;51.082;17.016;2023-02-27T04:17:01;101154.64;;;4.75;37.32
56176;BME280;63065;51.082;17.016;2023-02-27T04:19:28;101155.06;;;4.47;37.78
56176;BME280;63065;51.082;17.016;2023-02-27T04:21:49;101156.85;;;4.76;36.88
56176;BME280;63065;51.082;17.016;2023-02-27T04:24:15;101157.26;;;4.94;37.71
56176;BME280;63065;51.082;17.016;2023-02-27T04:26:38;101158.34;;;5.11;37.20
56176;BME280;63065;51.082;17.016;2023-02-27T04:29:02;101157.25;;;5.27;37.47
56176;BME280;63065;51.082;17.016;2023-02-27T04:31:29;101153.67;;;5.41;36.96
56176;BME280;63065;51.082;17.016;2023-02-27T04:33:53;101157.77;;;5.36;36.63
56176;BME280;63065;51.082;17.016;2023-02-27T04:36:21;101158.50;;;4.73;37.26
56176;BME280;63065;51.082;17.016;2023-02-27T04:38:44;101160.86;;;5.00;37.22
56176;BME280;63065;51.082;17.016;2023-02-27T04:41:08;101159.92;;;4.68;37.57
56176;BME280;63065;51.082;17.016;2023-02-27T04:43:33;101159.55;;;4.75;37.49
56176;BME280;63065;51.082;17.016;2023-02-27T04:45:59;101163.25;;;4.94;37.99
56176;BME280;63065;51.082;17.016;2023-02-27T04:48:25;101165.52;;;5.25;37.98
56176;BME280;63065;51.082;17.016;2023-02-27T04:50:53;101167.32;;;4.36;38.14
56176;BME280;63065;51.082;17.016;2023-02-27T04:53:18;101168.92;;;4.82;37.36
56176;BME280;63065;51.082;17.016;2023-02-27T04:55:44;101169.79;;;5.08;37.00
56176;BME280;63065;51.082;17.016;2023-02-27T04:58:09;101173.10;;;5.15;37.97
56176;BME280;63065;51.082;17.016;2023-02-27T05:00:31;101175.64;;;4.61;37.40
56176;BME280;63065;51.082;17.016;2023-02-27T05:02:59;101177.42;;;5.35;37.73
56176;BME280;63065;51.082;17.016;2023-02-27T05:05:24;101179.19;;;4.92;37.94
56176;BME280;63065;51.082;17.016;2023-02-27T05:07:50;101184.23;;;4.82;38.14
56176;BME280;63065;51.082;17.016;2023-02-27T05:10:14;101183.52;;;5.09;38.01
56176;BME280;63065;51.082;17.016;2023-02-27T05:12:41;101187.61;;;4.99;37.23
56176;BME280;63065;51.082;17.016;2023-02-27T05:15:06;101185.94;;;4.99;37.86
56176;BME280;63065;51.082;17.016;2023-02-27T05:17:31;101185.66;;;4.98;37.45
56176;BME280;63065;51.082;17.016;2023-02-27T05:19:53;101189.08;;;5.06;38.05
56176;BME280;63065;51.082;17.016;2023-02-27T05:22:29;101190.35;;;5.34;37.96
56176;BME280;63065;51.082;17.016;2023-02-27T05:24:48;101191.13;;;5.28;37.70
56176;BME280;63065;51.082;17.016;2023-02-27T05:27:17;101188.80;;;4.97;37.56
56176;BME280;63065;51.082;17.016;2023-02-27T05:29:40;101190.33;;;4.90;37.34
56176;BME280;63065;51.082;17.016;2023-02-27T05:32:06;101194.81;;;4.85;37.18
56176;BME280;63065;51.082;17.016;2023-02-27T05:34:27;101190.18;;;4.90;37.49
56176;BME280;63065;51.082;17.016;2023-02-27T05:36:55;101193.59;;;5.09;37.86
56176;BME280;63065;51.082;17.016;2023-02-27T05:39:18;101196.82;;;5.03;37.88
56176;BME280;63065;51.082;17.016;2023-02-27T05:41:43;101198.70;;;5.30;37.77
56176;BME280;63065;51.082;17.016;2023-02-27T05:44:09;101200.70;;;5.41;37.33
56176;BME280;63065;51.082;17.016;2023-02-27T05:46:32;101201.52;;;5.21;37.44
56176;BME280;63065;51.082;17.016;2023-02-27T05:48:58;101203.57;;;5.39;37.74
56176;BME280;63065;51.082;17.016;2023-02-27T05:51:25;101208.71;;;5.59;37.39
56176;BME280;63065;51.082;17.016;2023-02-27T05:53:52;101209.50;;;5.45;37.35
56176;BME280;63065;51.082;17.016;2023-02-27T05:56:13;101215.89;;;5.15;37.50
56176;BME280;63065;51.082;17.016;2023-02-27T05:58:40;101219.97;;;5.26;37.22
56176;BME280;63065;51.082;17.016;2023-02-27T06:01:04;101223.43;;;5.30;38.03
56176;BME280;63065;51.082;17.016;2023-02-27T06:03:31;101225.15;;;4.84;37.77
56176;BME280;63065;51.082;17.016;2023-02-27T06:05:55;101222.61;;;4.73;37.65
56176;BME280;63065;51.082;17.016;2023-02-27T06:08:19;101220.93;;;4.76;38.19
56176;BME280;63065;51.082;17.016;2023-02-27T06:10:44;101220.25;;;4.66;37.99
56176;BME280;63065;51.082;17.016;2023-02-27T06:13:09;101226.90;;;4.86;38.42
56176;BME280;63065;51.082;17.016;2023-02-27T06:15:35;101224.42;;;5.00;38.00
56176;BME280;63065;51.082;17.016;2023-02-27T06:18:01;101225.72;;;4.93;38.04
56176;BME280;63065;51.082;17.016;2023-02-27T06:20:26;101227.01;;;5.18;38.08
56176;BME280;63065;51.082;17.016;2023-02-27T06:22:51;101224.45;;;4.67;38.01
56176;BME280;63065;51.082;17.016;2023-02-27T06:25:17;101228.22;;;4.92;38.51
56176;BME280;63065;51.082;17.016;2023-02-27T06:27:42;101233.46;;;4.83;37.75
56176;BME280;63065;51.082;17.016;2023-02-27T06:30:08;101233.89;;;5.29;36.96
56176;BME280;63065;51.082;17.016;2023-02-27T06:32:32;101237.59;;;5.21;38.26
56176;BME280;63065;51.082;17.016;2023-02-27T06:34:58;101238.50;;;4.91;37.41
56176;BME280;63065;51.082;17.016;2023-02-27T06:37:23;101239.53;;;4.78;37.67
56176;BME280;63065;51.082;17.016;2023-02-27T06:39:48;101243.47;;;4.83;38.29
56176;BME280;63065;51.082;17.016;2023-02-27T06:42:14;101241.20;;;4.88;38.59
56176;BME280;63065;51.082;17.016;2023-02-27T06:44:39;101244.62;;;4.93;37.74
56176;BME280;63065;51.082;17.016;2023-02-27T06:47:04;101244.99;;;4.93;38.34
56176;BME280;63065;51.082;17.016;2023-02-27T06:49:30;101250.57;;;5.23;38.38
56176;BME280;63065;51.082;17.016;2023-02-27T06:51:55;101252.65;;;5.17;37.19
56176;BME280;63065;51.082;17.016;2023-02-27T06:54:20;101252.14;;;5.01;37.14
56176;BME280;63065;51.082;17.016;2023-02-27T06:56:45;101254.90;;;5.10;37.37
56176;BME280;63065;51.082;17.016;2023-02-27T06:59:11;101258.15;;;5.18;37.52
56176;BME280;63065;51.082;17.016;2023-02-27T07:01:36;101258.22;;;5.60;37.48
56176;BME280;63065;51.082;17.016;2023-02-27T07:04:01;101261.90;;;5.80;37.53
56176;BME280;63065;51.082;17.016;2023-02-27T07:06:27;101262.72;;;5.61;36.48
56176;BME280;63065;51.082;17.016;2023-02-27T07:08:52;101265.24;;;5.84;37.56
56176;BME280;63065;51.082;17.016;2023-02-27T07:11:17;101267.04;;;5.86;36.89
56176;BME280;63065;51.082;17.016;2023-02-27T07:13:42;101269.40;;;5.33;37.54
56176;BME280;63065;51.082;17.016;2023-02-27T07:16:07;101271.99;;;5.24;37.63
56176;BME280;63065;51.082;17.016;2023-02-27T07:18:32;101271.61;;;4.53;37.78
56176;BME280;63065;51.082;17.016;2023-02-27T07:20:57;101273.68;;;5.09;38.49
56176;BME280;63065;51.082;17.016;2023-02-27T07:23:23;101275.43;;;5.16;38.40
56176;BME280;63065;51.082;17.016;2023-02-27T07:25:49;101273.42;;;4.58;38.11
56176;BME280;63065;51.082;17.016;2023-02-27T07:28:14;101278.07;;;4.77;38.43
56176;BME280;63065;51.082;17.016;2023-02-27T07:30:39;101275.39;;;4.49;38.12
56176;BME280;63065;51.082;17.016;2023-02-27T07:33:04;101284.93;;;4.71;39.04
56176;BME280;63065;51.082;17.016;2023-02-27T07:35:30;101281.97;;;4.81;38.10
56176;BME280;63065;51.082;17.016;2023-02-27T07:37:55;101285.34;;;5.02;37.69
56176;BME280;63065;51.082;17.016;2023-02-27T07:40:21;101290.35;;;5.16;38.00
56176;BME280;63065;51.082;17.016;2023-02-27T07:42:46;101287.80;;;4.92;37.72
56176;BME280;63065;51.082;17.016;2023-02-27T07:45:11;101289.33;;;5.24;38.01
56176;BME280;63065;51.082;17.016;2023-02-27T07:47:36;101287.30;;;5.07;37.44
56176;BME280;63065;51.082;17.016;2023-02-27T07:50:02;101287.72;;;5.36;36.87
56176;BME280;63065;51.082;17.016;2023-02-27T07:52:27;101291.91;;;5.23;37.45
56176;BME280;63065;51.082;17.016;2023-02-27T07:54:53;101294.33;;;5.44;38.16
56176;BME280;63065;51.082;17.016;2023-02-27T07:57:18;101297.20;;;5.47;36.94
56176;BME280;63065;51.082;17.016;2023-02-27T07:59:43;101297.19;;;5.18;37.79
56176;BME280;63065;51.082;17.016;2023-02-27T08:02:10;101299.42;;;5.64;37.14
56176;BME280;63065;51.082;17.016;2023-02-27T08:04:35;101301.08;;;5.47;37.37
56176;BME280;63065;51.082;17.016;2023-02-27T08:07:00;101303.56;;;5.67;37.16
56176;BME280;63065;51.082;17.016;2023-02-27T08:09:25;101302.75;;;5.83;36.59
56176;BME280;63065;51.082;17.016;2023-02-27T08:11:51;101296.88;;;5.86;37.09
56176;BME280;63065;51.082;17.016;2023-02-27T08:14:16;101298.96;;;6.26;36.89
56176;BME280;63065;51.082;17.016;2023-02-27T08:16:41;101301.93;;;5.99;36.50
56176;BME280;63065;51.082;17.016;2023-02-27T08:19:06;101304.28;;;6.27;37.48
56176;BME280;63065;51.082;17.016;2023-02-27T08:21:31;101305.55;;;5.97;36.55
56176;BME280;63065;51.082;17.016;2023-02-27T08:23:57;101306.94;;;6.37;37.07
56176;BME280;63065;51.082;17.016;2023-02-27T08:26:22;101310.57;;;5.77;36.99
56176;BME280;63065;51.082;17.016;2023-02-27T08:28:48;101311.14;;;6.19;36.95
56176;BME280;63065;51.082;17.016;2023-02-27T08:31:13;101314.91;;;5.75;37.20
56176;BME280;63065;51.082;17.016;2023-02-27T08:33:39;101315.66;;;5.88;37.30
56176;BME280;63065;51.082;17.016;2023-02-27T08:36:04;101318.71;;;5.92;37.25
56176;BME280;63065;51.082;17.016;2023-02-27T08:38:29;101318.09;;;6.08;36.87
56176;BME280;63065;51.082;17.016;2023-02-27T08:40:55;101316.54;;;5.64;37.12
56176;BME280;63065;51.082;17.016;2023-02-27T08:43:21;101320.74;;;5.24;37.82
56176;BME280;63065;51.082;17.016;2023-02-27T08:45:46;101326.17;;;4.77;38.85
56176;BME280;63065;51.082;17.016;2023-02-27T08:48:11;101320.35;;;5.38;37.92
56176;BME280;63065;51.082;17.016;2023-02-27T08:50:36;101319.37;;;5.60;37.55
56176;BME280;63065;51.082;17.016;2023-02-27T08:53:01;101320.65;;;6.09;38.30
56176;BME280;63065;51.082;17.016;2023-02-27T08:55:29;101321.66;;;6.23;37.30
56176;BME280;63065;51.082;17.016;2023-02-27T08:57:52;101324.93;;;6.45;36.25
56176;BME280;63065;51.082;17.016;2023-02-27T09:00:18;101326.08;;;5.59;36.01
56176;BME280;63065;51.082;17.016;2023-02-27T09:02:43;101331.10;;;5.95;36.62
56176;BME280;63065;51.082;17.016;2023-02-27T09:05:09;101333.68;;;5.96;35.95
56176;BME280;63065;51.082;17.016;2023-02-27T09:07:34;101333.27;;;6.23;36.97
56176;BME280;63065;51.082;17.016;2023-02-27T09:10:00;101337.88;;;6.36;36.28
56176;BME280;63065;51.082;17.016;2023-02-27T09:12:25;101334.67;;;6.68;36.18
56176;BME280;63065;51.082;17.016;2023-02-27T09:14:50;101337.38;;;6.83;36.18
56176;BME280;63065;51.082;17.016;2023-02-27T09:17:15;101338.39;;;6.94;35.41
56176;BME280;63065;51.082;17.016;2023-02-27T09:19:41;101338.75;;;7.19;34.94
56176;BME280;63065;51.082;17.016;2023-02-27T09:22:07;101339.44;;;6.23;35.42
56176;BME280;63065;51.082;17.016;2023-02-27T09:24:32;101336.69;;;6.82;35.13
56176;BME280;63065;51.082;17.016;2023-02-27T09:26:57;101337.64;;;6.76;34.78
56176;BME280;63065;51.082;17.016;2023-02-27T09:29:22;101337.05;;;6.93;34.95
56176;BME280;63065;51.082;17.016;2023-02-27T09:31:47;101334.15;;;7.12;34.19
56176;BME280;63065;51.082;17.016;2023-02-27T09:34:13;101337.39;;;7.37;34.90
56176;BME280;63065;51.082;17.016;2023-02-27T09:36:38;101339.13;;;7.29;32.92
56176;BME280;63065;51.082;17.016;2023-02-27T09:39:03;101345.53;;;7.25;33.83
56176;BME280;63065;51.082;17.016;2023-02-27T09:41:41;101345.39;;;7.16;34.93
56176;BME280;63065;51.082;17.016;2023-02-27T09:43:54;101344.47;;;7.60;33.82
56176;BME280;63065;51.082;17.016;2023-02-27T09:46:22;101348.54;;;7.64;34.26
56176;BME280;63065;51.082;17.016;2023-02-27T09:48:48;101347.04;;;7.09;34.67
56176;BME280;63065;51.082;17.016;2023-02-27T09:51:10;101349.19;;;6.70;35.55
56176;BME280;63065;51.082;17.016;2023-02-27T09:53:37;101349.62;;;6.24;36.32
56176;BME280;63065;51.082;17.016;2023-02-27T09:56:06;101353.14;;;7.00;35.32
56176;BME280;63065;51.082;17.016;2023-02-27T09:58:37;101350.83;;;6.67;34.66
56176;BME280;63065;51.082;17.016;2023-02-27T10:00:55;101353.50;;;6.70;35.41
56176;BME280;63065;51.082;17.016;2023-02-27T10:03:27;101356.01;;;6.77;36.19
56176;BME280;63065;51.082;17.016;2023-02-27T10:05:46;101355.20;;;6.71;35.61
56176;BME280;63065;51.082;17.016;2023-02-27T10:08:13;101360.20;;;6.90;34.66
56176;BME280;63065;51.082;17.016;2023-02-27T10:10:38;101363.35;;;6.59;35.67
56176;BME280;63065;51.082;17.016;2023-02-27T10:13:13;101362.04;;;6.21;36.62
56176;BME280;63065;51.082;17.016;2023-02-27T10:15:26;101369.80;;;6.33;36.58
56176;BME280;63065;51.082;17.016;2023-02-27T10:17:52;101365.08;;;6.25;36.52
56176;BME280;63065;51.082;17.016;2023-02-27T10:20:19;101364.84;;;6.87;36.04
56176;BME280;63065;51.082;17.016;2023-02-27T10:22:43;101364.76;;;6.74;34.91
56176;BME280;63065;51.082;17.016;2023-02-27T10:25:10;101368.14;;;7.24;35.92
56176;BME280;63065;51.082;17.016;2023-02-27T10:27:31;101367.27;;;6.85;35.69
56176;BME280;63065;51.082;17.016;2023-02-27T10:30:07;101363.77;;;6.98;34.49
56176;BME280;63065;51.082;17.016;2023-02-27T10:32:23;101365.46;;;7.15;35.16
56176;BME280;63065;51.082;17.016;2023-02-27T10:34:51;101364.18;;;6.75;35.60
56176;BME280;63065;51.082;17.016;2023-02-27T10:37:14;101364.40;;;6.89;36.17
56176;BME280;63065;51.082;17.016;2023-02-27T10:39:43;101361.93;;;7.30;36.57
56176;BME280;63065;51.082;17.016;2023-02-27T10:42:04;101359.86;;;7.20;35.58
56176;BME280;63065;51.082;17.016;2023-02-27T10:44:27;101354.82;;;7.42;35.84
56176;BME280;63065;51.082;17.016;2023-02-27T10:46:52;101356.82;;;7.28;35.85
56176;BME280;63065;51.082;17.016;2023-02-27T10:49:19;101357.07;;;7.43;35.73
56176;BME280;63065;51.082;17.016;2023-02-27T10:51:43;101361.49;;;7.34;35.83
56176;BME280;63065;51.082;17.016;2023-02-27T10:54:14;101357.99;;;7.36;35.59
56176;BME280;63065;51.082;17.016;2023-02-27T10:56:34;101362.67;;;7.25;35.86
56176;BME280;63065;51.082;17.016;2023-02-27T10:59:02;101366.50;;;7.26;36.10
56176;BME280;63065;51.082;17.016;2023-02-27T11:01:25;101363.66;;;7.46;35.17
56176;BME280;63065;51.082;17.016;2023-02-27T11:03:55;101353.60;;;7.32;35.42
56176;BME280;63065;51.082;17.016;2023-02-27T11:06:21;101356.43;;;6.84;34.64
56176;BME280;63065;51.082;17.016;2023-02-27T11:08:40;101355.57;;;7.46;34.74
56176;BME280;63065;51.082;17.016;2023-02-27T11:11:08;101353.35;;;7.68;33.31
56176;BME280;63065;51.082;17.016;2023-02-27T11:13:33;101349.08;;;7.37;33.65
56176;BME280;63065;51.082;17.016;2023-02-27T11:16:04;101352.69;;;7.85;33.60
56176;BME280;63065;51.082;17.016;2023-02-27T11:18:26;101350.63;;;7.56;33.28
56176;BME280;63065;51.082;17.016;2023-02-27T11:20:47;101349.74;;;7.58;32.39
56176;BME280;63065;51.082;17.016;2023-02-27T11:23:14;101347.05;;;7.57;32.49
56176;BME280;63065;51.082;17.016;2023-02-27T11:25:38;101346.32;;;7.14;34.25
56176;BME280;63065;51.082;17.016;2023-02-27T11:28:17;101342.24;;;7.20;34.44
56176;BME280;63065;51.082;17.016;2023-02-27T11:30:30;101341.78;;;7.59;32.83
56176;BME280;63065;51.082;17.016;2023-02-27T11:32:55;101341.88;;;7.56;33.83
56176;BME280;63065;51.082;17.016;2023-02-27T11:35:23;101343.93;;;7.14;33.38
56176;BME280;63065;51.082;17.016;2023-02-27T11:37:47;101339.59;;;7.13;34.61
56176;BME280;63065;51.082;17.016;2023-02-27T11:40:14;101340.06;;;7.65;34.01
56176;BME280;63065;51.082;17.016;2023-02-27T11:42:36;101337.82;;;7.96;32.23
56176;BME280;63065;51.082;17.016;2023-02-27T11:45:04;101342.23;;;7.89;32.72
56176;BME280;63065;51.082;17.016;2023-02-27T11:47:31;101341.17;;;8.06;31.92
56176;BME280;63065;51.082;17.016;2023-02-27T11:50:06;101340.77;;;8.12;32.15
56176;BME280;63065;51.082;17.016;2023-02-27T11:52:21;101342.15;;;8.25;32.81
56176;BME280;63065;51.082;17.016;2023-02-27T11:54:44;101342.66;;;8.30;33.94
56176;BME280;63065;51.082;17.016;2023-02-27T11:57:22;101340.88;;;8.16;32.47
56176;BME280;63065;51.082;17.016;2023-02-27T11:59:41;101337.64;;;8.37;32.22
56176;BME280;63065;51.082;17.016;2023-02-27T12:02:03;101335.25;;;8.65;32.77
56176;BME280;63065;51.082;17.016;2023-02-27T12:04:27;101335.91;;;8.81;30.94
56176;BME280;63065;51.082;17.016;2023-02-27T12:06:53;101338.95;;;8.56;30.96
56176;BME280;63065;51.082;17.016;2023-02-27T12:11:42;101331.11;;;7.90;31.21
56176;BME280;63065;51.082;17.016;2023-02-27T12:14:10;101334.34;;;7.74;30.82
56176;BME280;63065;51.082;17.016;2023-02-27T12:16:35;101335.55;;;8.06;33.23
56176;BME280;63065;51.082;17.016;2023-02-27T12:18:58;101333.82;;;7.75;31.92
56176;BME280;63065;51.082;17.016;2023-02-27T12:21:22;101337.64;;;7.78;33.53
56176;BME280;63065;51.082;17.016;2023-02-27T12:23:50;101336.98;;;7.47;33.48
56176;BME280;63065;51.082;17.016;2023-02-27T12:26:25;101339.86;;;7.63;32.97
56176;BME280;63065;51.082;17.016;2023-02-27T12:28:44;101343.09;;;7.92;32.08
56176;BME280;63065;51.082;17.016;2023-02-27T12:31:13;101341.91;;;7.78;32.76
56176;BME280;63065;51.082;17.016;2023-02-27T12:33:35;101342.55;;;8.11;33.52
56176;BME280;63065;51.082;17.016;2023-02-27T12:35:57;101344.38;;;8.07;32.07
56176;BME280;63065;51.082;17.016;2023-02-27T12:38:18;101346.39;;;7.62;32.79
56176;BME280;63065;51.082;17.016;2023-02-27T12:40:51;101345.61;;;7.70;32.54
56176;BME280;63065;51.082;17.016;2023-02-27T12:43:19;101346.89;;;7.67;33.19
56176;BME280;63065;51.082;17.016;2023-02-27T12:45:42;101350.21;;;7.84;33.20
56176;BME280;63065;51.082;17.016;2023-02-27T12:48:09;101350.13;;;7.75;33.60
56176;BME280;63065;51.082;17.016;2023-02-27T12:50:37;101350.79;;;7.42;33.73